createdAt,value
2023-08-02T00:01:13.558Z,3.83
2023-08-02T00:03:49.147Z,6.70
2023-08-02T00:06:22.982Z,4.13
2023-08-02T00:08:51.227Z,6.50
2023-08-02T00:11:19.634Z,3.63
2023-08-02T00:13:48.080Z,5.93
2023-08-02T00:16:16.315Z,9.82
2023-08-02T00:18:45.980Z,5.13
2023-08-02T00:21:14.334Z,5.22
2023-08-02T00:23:42.496Z,4.57
2023-08-02T00:26:10.626Z,5.57
2023-08-02T00:28:39.145Z,3.35
2023-08-02T00:31:07.719Z,8.38
2023-08-02T00:33:36.482Z,7.20
2023-08-02T00:36:06.575Z,6.53
2023-08-02T00:38:35.466Z,7.78
2023-08-02T00:41:04.620Z,4.07
2023-08-02T00:43:40.381Z,5.22
2023-08-02T00:46:09.007Z,3.63
2023-08-02T00:48:37.894Z,4.20
2023-08-02T00:51:09.273Z,5.53
2023-08-02T00:53:37.742Z,7.10
2023-08-02T00:56:07.202Z,4.20
2023-08-02T00:58:35.640Z,2.10
2023-08-02T01:01:09.089Z,3.75
2023-08-02T01:03:38.392Z,7.40
2023-08-02T01:06:15.471Z,3.65
2023-08-02T01:08:49.118Z,5.80
2023-08-02T01:11:22.686Z,3.20
2023-08-02T01:13:52.638Z,7.70
2023-08-02T01:16:32.340Z,6.15
2023-08-02T01:19:02.123Z,4.20
2023-08-02T01:21:32.020Z,4.93
2023-08-02T01:24:02.753Z,3.42
2023-08-02T01:26:33.719Z,7.65
2023-08-02T01:29:06.066Z,4.35
2023-08-02T01:31:36.739Z,5.57
2023-08-02T01:34:05.922Z,2.58
2023-08-02T01:36:36.541Z,2.97
2023-08-02T01:39:04.796Z,4.72
2023-08-02T01:41:33.385Z,2.83
2023-08-02T01:44:01.458Z,5.18
2023-08-02T01:46:29.545Z,8.25
2023-08-02T01:48:57.870Z,4.75
2023-08-02T01:51:26.512Z,2.88
2023-08-02T01:53:57.030Z,6.93
2023-08-02T01:56:25.351Z,5.72
2023-08-02T01:58:53.373Z,4.15
2023-08-02T02:01:22.891Z,5.20
2023-08-02T02:03:51.854Z,7.45
2023-08-02T02:06:20.013Z,6.82
2023-08-02T02:08:49.763Z,3.42
2023-08-02T02:11:19.531Z,4.68
2023-08-02T02:13:49.638Z,4.97
2023-08-02T02:16:19.496Z,6.20
2023-08-02T02:18:47.949Z,4.35
2023-08-02T02:21:16.130Z,5.57
2023-08-02T02:23:44.502Z,6.65
2023-08-02T02:26:14.064Z,5.53
2023-08-02T02:28:43.816Z,4.60
2023-08-02T02:31:12.019Z,4.15
2023-08-02T02:33:40.253Z,3.90
2023-08-02T02:36:08.782Z,3.80
2023-08-02T02:38:37.101Z,4.95
2023-08-02T02:41:06.714Z,3.22
2023-08-02T02:43:35.090Z,8.02
2023-08-02T02:46:04.899Z,2.95
2023-08-02T02:48:33.480Z,4.70
2023-08-02T02:51:01.471Z,6.75
2023-08-02T02:53:30.104Z,3.60
2023-08-02T02:55:58.452Z,3.35
2023-08-02T02:58:26.571Z,3.28
2023-08-02T03:00:55.152Z,3.63
2023-08-02T03:03:24.881Z,3.00
2023-08-02T03:05:55.322Z,3.03
2023-08-02T03:08:24.091Z,4.82
2023-08-02T03:10:52.855Z,3.60
2023-08-02T03:13:21.065Z,4.60
2023-08-02T03:15:50.356Z,3.13
2023-08-02T03:18:18.988Z,3.67
2023-08-02T03:20:48.588Z,5.32
2023-08-02T03:23:16.855Z,3.95
2023-08-02T03:25:47.452Z,7.43
2023-08-02T03:28:15.717Z,3.28
2023-08-02T03:30:44.073Z,4.15
2023-08-02T03:33:12.896Z,5.97
2023-08-02T03:35:41.064Z,5.28
2023-08-02T03:38:12.637Z,3.60
2023-08-02T03:40:41.276Z,3.63
2023-08-02T03:43:09.685Z,4.53
2023-08-02T03:45:40.252Z,3.40
2023-08-02T03:48:08.466Z,3.03
2023-08-02T03:50:36.804Z,4.45
2023-08-02T03:53:05.471Z,2.72
2023-08-02T03:55:35.157Z,3.80
2023-08-02T03:58:04.195Z,2.45
2023-08-02T04:00:32.947Z,5.20
2023-08-02T04:03:02.335Z,6.10
2023-08-02T04:05:30.744Z,4.55
2023-08-02T04:07:59.207Z,1.90
2023-08-02T04:10:27.972Z,4.82
2023-08-02T04:13:00.968Z,5.72
2023-08-02T04:15:29.383Z,3.47
2023-08-02T04:17:58.021Z,3.63
2023-08-02T04:20:27.244Z,4.30
2023-08-02T04:22:55.662Z,4.07
2023-08-02T04:25:24.342Z,4.47
2023-08-02T04:27:52.763Z,3.17
2023-08-02T04:30:22.334Z,4.75
2023-08-02T04:32:51.633Z,4.03
2023-08-02T04:35:19.860Z,3.05
2023-08-02T04:37:48.765Z,5.22
2023-08-02T04:40:17.882Z,4.75
2023-08-02T04:42:48.599Z,3.75
2023-08-02T04:45:17.308Z,4.05
2023-08-02T04:47:47.497Z,5.72
2023-08-02T04:50:15.737Z,1.83
2023-08-02T04:52:44.590Z,4.45
2023-08-02T04:55:12.785Z,3.60
2023-08-02T04:57:41.452Z,2.35
2023-08-02T05:00:10.408Z,4.05
2023-08-02T05:02:39.397Z,1.58
2023-08-02T05:05:10.204Z,5.25
2023-08-02T05:07:41.393Z,5.20
2023-08-02T05:10:10.542Z,2.53
2023-08-02T05:12:41.265Z,5.05
2023-08-02T05:15:10.541Z,3.42
2023-08-02T05:17:38.762Z,2.58
2023-08-02T05:20:10.589Z,2.83
2023-08-02T05:22:39.099Z,3.88
2023-08-02T05:25:08.662Z,6.00
2023-08-02T05:27:37.365Z,2.92
2023-08-02T05:30:06.485Z,5.55
2023-08-02T05:32:34.763Z,3.92
2023-08-02T05:35:03.080Z,2.55
2023-08-02T05:37:32.739Z,2.33
2023-08-02T05:40:00.898Z,2.60
2023-08-02T05:42:29.154Z,3.45
2023-08-02T05:44:58.552Z,3.35
2023-08-02T05:47:27.113Z,8.43
2023-08-02T05:49:55.460Z,4.82
2023-08-02T05:52:23.714Z,6.50
2023-08-02T05:54:53.583Z,5.75
2023-08-02T05:57:21.914Z,5.53
2023-08-02T05:59:51.363Z,6.25
2023-08-02T06:02:21.579Z,3.78
2023-08-02T06:04:51.079Z,7.10
2023-08-02T06:07:19.615Z,7.07
2023-08-02T06:09:49.426Z,6.93
2023-08-02T06:12:19.802Z,0.00
2023-08-02T06:14:48.017Z,0.13
2023-08-02T06:17:16.951Z,0.00
2023-08-02T06:19:45.467Z,0.00
2023-08-02T06:22:15.144Z,0.13
2023-08-02T06:24:43.677Z,0.50
2023-08-02T06:27:11.909Z,1.65
2023-08-02T06:29:41.442Z,1.55
2023-08-02T06:32:10.258Z,0.43
2023-08-02T06:34:38.564Z,0.00
2023-08-02T06:37:07.218Z,0.20
2023-08-02T06:39:35.368Z,0.22
2023-08-02T06:42:03.974Z,0.20
2023-08-02T06:44:33.578Z,2.85
2023-08-02T06:47:03.082Z,0.10
2023-08-02T06:49:31.428Z,1.65
2023-08-02T06:51:59.662Z,0.00
2023-08-02T06:54:28.097Z,0.00
2023-08-02T06:56:56.464Z,0.00
2023-08-02T06:59:26.718Z,0.10
2023-08-02T07:01:55.306Z,0.00
2023-08-02T07:04:24.772Z,0.15
2023-08-02T07:06:53.272Z,0.00
2023-08-02T07:09:21.499Z,0.00
2023-08-02T07:11:50.281Z,0.55
2023-08-02T07:14:19.143Z,0.00
2023-08-02T07:16:47.735Z,0.03
2023-08-02T07:19:16.409Z,2.38
2023-08-02T07:21:46.706Z,0.22
2023-08-02T07:24:17.559Z,0.10
2023-08-02T07:26:45.962Z,0.00
2023-08-02T07:29:14.231Z,0.10
2023-08-02T07:31:42.652Z,2.17
2023-08-02T07:34:11.004Z,1.20
2023-08-02T07:36:40.711Z,1.05
2023-08-02T07:39:10.505Z,0.00
2023-08-02T07:41:38.916Z,0.10
2023-08-02T07:44:07.025Z,0.10
2023-08-02T07:46:38.005Z,0.30
2023-08-02T07:49:07.004Z,1.98
2023-08-02T07:51:35.585Z,0.10
2023-08-02T07:54:03.852Z,0.08
2023-08-02T07:56:33.476Z,0.00
2023-08-02T07:59:04.438Z,0.10
2023-08-02T08:01:33.322Z,0.00
2023-08-02T08:04:01.636Z,0.00
2023-08-02T08:06:30.175Z,0.00
2023-08-02T08:08:58.843Z,0.65
2023-08-02T08:11:29.491Z,0.00
2023-08-02T08:13:59.295Z,1.52
2023-08-02T08:16:27.511Z,13.68
2023-08-02T08:18:55.706Z,0.25
2023-08-02T08:21:23.805Z,0.38
2023-08-02T08:23:52.227Z,0.20
2023-08-02T08:26:20.375Z,0.00
2023-08-02T08:28:48.818Z,0.15
2023-08-02T08:31:18.625Z,0.25
2023-08-02T08:33:46.863Z,0.00
2023-08-02T08:36:15.980Z,0.20
2023-08-02T08:38:45.020Z,0.68
2023-08-02T08:41:17.181Z,0.00
2023-08-02T08:43:46.053Z,0.00
2023-08-02T08:46:14.972Z,0.00
2023-08-02T08:48:44.555Z,0.00
2023-08-02T08:51:14.779Z,0.32
2023-08-02T08:53:45.627Z,0.40
2023-08-02T08:56:15.139Z,0.00
2023-08-02T08:58:43.655Z,0.00
2023-08-02T09:01:13.251Z,0.60
2023-08-02T09:03:42.157Z,0.00
2023-08-02T09:06:11.774Z,0.35
2023-08-02T09:08:44.769Z,0.10
2023-08-02T09:11:14.384Z,0.00
2023-08-02T09:13:42.501Z,0.15
2023-08-02T09:16:12.751Z,0.00
2023-08-02T09:18:42.627Z,0.20
2023-08-02T09:21:14.277Z,0.20
2023-08-02T09:23:47.344Z,0.00
2023-08-02T09:26:19.146Z,1.20
2023-08-02T09:29:01.628Z,0.00
2023-08-02T09:31:30.476Z,0.40
2023-08-02T09:33:59.338Z,0.00
2023-08-02T09:36:32.331Z,0.28
2023-08-02T09:39:07.884Z,0.00
2023-08-02T09:41:47.970Z,0.00
2023-08-02T09:44:24.971Z,0.00
2023-08-02T09:46:53.971Z,0.00
2023-08-02T09:53:25.016Z,0.00
2023-08-02T09:55:57.875Z,0.20
2023-08-02T09:58:28.330Z,0.85
2023-08-02T10:00:57.120Z,0.00
2023-08-02T10:03:28.313Z,0.03
2023-08-02T10:06:03.362Z,0.00
2023-08-02T10:08:36.613Z,0.00
2023-08-02T10:11:06.795Z,0.55
2023-08-02T10:13:40.289Z,3.22
2023-08-02T10:16:11.672Z,0.10
2023-08-02T10:18:42.958Z,0.20
2023-08-02T10:21:11.739Z,0.20
2023-08-02T10:23:43.818Z,0.08
2023-08-02T10:26:12.119Z,0.00
2023-08-02T10:28:42.901Z,0.00
2023-08-02T10:31:15.338Z,0.08
2023-08-02T10:33:46.080Z,0.20
2023-08-02T10:36:17.904Z,0.00
2023-08-02T10:38:54.233Z,0.00
2023-08-02T10:41:24.970Z,0.00
2023-08-02T10:44:14.322Z,2.95
2023-08-02T10:46:42.857Z,0.08
2023-08-02T10:49:40.208Z,0.28
2023-08-02T10:52:34.056Z,0.00
2023-08-02T10:55:08.260Z,0.30
2023-08-02T10:57:37.548Z,0.03
2023-08-02T11:00:16.912Z,0.10
2023-08-02T11:02:50.198Z,0.10
2023-08-02T11:05:37.639Z,0.40
2023-08-02T11:08:08.897Z,0.10
2023-08-02T11:10:50.429Z,0.00
2023-08-02T11:13:18.883Z,0.10
2023-08-02T11:15:48.284Z,0.10
2023-08-02T11:18:31.456Z,0.00
2023-08-02T11:21:09.463Z,0.40
2023-08-02T11:23:37.849Z,0.00
2023-08-02T11:26:14.257Z,0.10
2023-08-02T11:28:44.253Z,0.00
2023-08-02T11:31:13.036Z,0.00
2023-08-02T11:33:42.493Z,0.10
2023-08-02T11:36:11.336Z,0.05
2023-08-02T11:38:40.226Z,0.15
2023-08-02T11:41:21.454Z,0.00
2023-08-02T11:43:50.901Z,0.20
2023-08-02T11:46:22.910Z,0.00
2023-08-02T11:48:51.908Z,0.45
2023-08-02T11:51:22.226Z,0.00
2023-08-02T11:53:52.527Z,0.17
2023-08-02T11:56:23.359Z,0.00
2023-08-02T11:58:52.275Z,0.00
2023-08-02T12:01:21.726Z,0.00
2023-08-02T12:03:58.200Z,0.00
2023-08-02T12:06:27.429Z,0.00
2023-08-02T12:08:57.806Z,0.55
2023-08-02T12:11:28.717Z,0.00
2023-08-02T12:13:59.633Z,0.28
2023-08-02T12:16:39.977Z,0.00
2023-08-02T12:19:08.419Z,0.10
2023-08-02T12:21:38.244Z,0.00
2023-08-02T12:24:14.734Z,0.65
2023-08-02T12:26:46.269Z,1.30
2023-08-02T12:29:24.326Z,0.00
2023-08-02T12:31:54.520Z,0.00
2023-08-02T12:34:27.689Z,0.00
2023-08-02T12:36:57.479Z,0.00
2023-08-02T12:39:25.934Z,0.00
2023-08-02T12:41:55.491Z,0.00
2023-08-02T12:44:23.849Z,0.00
2023-08-02T12:46:52.047Z,0.00
2023-08-02T12:49:20.332Z,0.15
2023-08-02T12:51:48.591Z,0.10
2023-08-02T12:54:16.890Z,0.15
2023-08-02T12:56:45.389Z,0.00
2023-08-02T12:59:15.190Z,0.00
2023-08-02T13:01:43.464Z,0.52
2023-08-02T13:04:11.863Z,0.20
2023-08-02T13:06:47.258Z,0.00
2023-08-02T13:09:23.479Z,0.30
2023-08-02T13:11:58.269Z,0.30
2023-08-02T13:14:34.356Z,0.20
2023-08-02T13:17:03.549Z,0.17
2023-08-02T13:19:31.944Z,1.75
2023-08-02T13:22:00.136Z,0.03
2023-08-02T13:24:28.553Z,0.30
2023-08-02T13:26:56.954Z,0.10
2023-08-02T13:29:25.422Z,0.00
2023-08-02T13:31:55.768Z,0.05
2023-08-02T13:34:24.628Z,0.00
2023-08-02T13:36:53.748Z,0.00
2023-08-02T13:39:22.280Z,0.00
2023-08-02T13:41:50.539Z,0.28
2023-08-02T13:44:19.373Z,0.00
2023-08-02T13:46:47.612Z,0.20
2023-08-02T13:49:17.201Z,0.00
2023-08-02T13:51:46.427Z,0.52
2023-08-02T13:54:14.655Z,0.00
2023-08-02T13:56:43.270Z,0.63
2023-08-02T13:59:11.859Z,0.47
2023-08-02T14:01:40.274Z,0.30
2023-08-02T14:04:08.800Z,0.13
2023-08-02T14:06:38.591Z,0.00
2023-08-02T14:09:07.024Z,0.00
2023-08-02T14:11:35.994Z,0.00
2023-08-02T14:14:04.146Z,0.10
2023-08-02T14:16:32.389Z,0.00
2023-08-02T14:19:00.926Z,0.00
2023-08-02T14:21:29.050Z,0.10
2023-08-02T14:23:59.359Z,0.25
2023-08-02T14:26:27.976Z,4.85
2023-08-02T14:28:56.760Z,0.10
2023-08-02T14:31:24.935Z,0.15
2023-08-02T14:33:53.285Z,0.13
2023-08-02T14:36:21.623Z,0.28
2023-08-02T14:38:50.224Z,0.30
2023-08-02T14:41:22.031Z,0.00
2023-08-02T14:43:50.475Z,0.20
2023-08-02T14:46:19.147Z,0.00
2023-08-02T14:48:47.407Z,0.00
2023-08-02T14:51:18.001Z,0.15
2023-08-02T14:53:47.157Z,0.05
2023-08-02T14:56:18.401Z,0.00
2023-08-02T14:58:48.038Z,0.00
2023-08-02T15:01:17.609Z,0.25
2023-08-02T15:03:45.952Z,0.10
2023-08-02T15:06:14.412Z,0.00
2023-08-02T15:08:42.690Z,0.00
2023-08-02T15:11:10.869Z,0.00
2023-08-02T15:13:39.298Z,0.30
2023-08-02T15:16:08.835Z,18.63
2023-08-02T15:18:37.310Z,0.00
2023-08-02T15:21:05.736Z,0.00
2023-08-02T15:23:34.044Z,0.00
2023-08-02T15:26:02.290Z,0.00
2023-08-02T15:28:30.454Z,0.05
2023-08-02T15:30:58.581Z,0.00
2023-08-02T15:33:28.993Z,0.00
2023-08-02T15:35:58.560Z,0.00
2023-08-02T15:38:26.892Z,1.65
2023-08-02T15:40:54.999Z,0.00
2023-08-02T15:43:23.364Z,0.00
2023-08-02T15:45:51.808Z,0.00
2023-08-02T15:48:22.384Z,0.00
2023-08-02T15:50:52.350Z,0.00
2023-08-02T15:53:20.610Z,0.00
2023-08-02T15:55:49.010Z,0.00
2023-08-02T15:58:17.256Z,1.58
2023-08-02T16:00:45.780Z,0.80
2023-08-02T16:03:13.826Z,1.95
2023-08-02T16:05:42.908Z,2.17
2023-08-02T16:08:12.712Z,3.20
2023-08-02T16:10:41.799Z,0.45
2023-08-02T16:13:10.134Z,1.13
2023-08-02T16:15:38.310Z,2.83
2023-08-02T16:18:07.887Z,2.47
2023-08-02T16:20:36.313Z,3.05
2023-08-02T16:23:05.698Z,1.20
2023-08-02T16:25:35.336Z,4.13
2023-08-02T16:28:04.309Z,2.65
2023-08-02T16:30:32.700Z,1.42
2023-08-02T16:33:01.090Z,1.48
2023-08-02T16:35:29.425Z,2.25
2023-08-02T16:37:58.064Z,1.15
2023-08-02T16:40:26.222Z,1.02
2023-08-02T16:42:55.898Z,1.17
2023-08-02T16:45:24.582Z,0.98
2023-08-02T16:47:53.060Z,1.48
2023-08-02T16:50:21.483Z,1.10
2023-08-02T16:52:50.096Z,1.98
2023-08-02T16:55:18.379Z,1.20
2023-08-02T16:57:46.810Z,1.98
2023-08-02T17:00:17.377Z,1.15
2023-08-02T17:02:46.994Z,1.10
2023-08-02T17:05:15.266Z,1.58
2023-08-02T17:07:44.991Z,0.95
2023-08-02T17:10:13.362Z,1.27
2023-08-02T17:12:41.670Z,1.30
2023-08-02T17:15:11.406Z,1.90
2023-08-02T17:17:41.117Z,2.28
2023-08-02T17:20:11.840Z,5.13
2023-08-02T17:22:40.650Z,1.17
2023-08-02T17:25:09.934Z,1.42
2023-08-02T17:27:38.161Z,1.90
2023-08-02T17:30:08.300Z,1.67
2023-08-02T17:32:36.598Z,2.35
2023-08-02T17:35:07.194Z,1.52
2023-08-02T17:37:36.044Z,1.23
2023-08-02T17:40:04.304Z,2.50
2023-08-02T17:42:32.746Z,1.58
2023-08-02T17:45:01.372Z,1.50
2023-08-02T17:47:30.001Z,2.03
2023-08-02T17:49:59.320Z,1.35
2023-08-02T17:52:29.038Z,1.50
2023-08-02T17:54:57.845Z,3.25
2023-08-02T17:57:26.671Z,2.50
2023-08-02T17:59:56.894Z,1.42
2023-08-02T18:02:26.642Z,2.42
2023-08-02T18:04:55.895Z,2.50
2023-08-02T18:07:25.528Z,2.35
2023-08-02T18:09:54.988Z,1.60
2023-08-02T18:12:23.589Z,2.40
2023-08-02T18:14:52.496Z,1.92
2023-08-02T18:17:20.848Z,2.00
2023-08-02T18:19:49.390Z,5.38
2023-08-02T18:22:17.569Z,2.33
2023-08-02T18:24:45.900Z,1.50
2023-08-02T18:27:15.801Z,3.53
2023-08-02T18:29:44.805Z,2.20
2023-08-02T18:32:12.763Z,1.55
2023-08-02T18:34:41.627Z,2.35
2023-08-02T18:37:11.109Z,5.28
2023-08-02T18:39:39.414Z,3.45
2023-08-02T18:42:09.621Z,3.35
2023-08-02T18:44:39.349Z,1.40
2023-08-02T18:47:08.271Z,1.42
2023-08-02T18:49:37.203Z,1.00
2023-08-02T18:52:06.506Z,2.25
2023-08-02T18:54:34.988Z,2.67
2023-08-02T18:57:03.948Z,3.28
2023-08-02T18:59:32.652Z,1.63
2023-08-02T19:02:02.334Z,2.17
2023-08-02T19:04:30.653Z,1.23
2023-08-02T19:06:59.219Z,3.67
2023-08-02T19:09:29.100Z,2.22
2023-08-02T19:11:57.523Z,1.45
2023-08-02T19:14:26.252Z,4.40
2023-08-02T19:16:58.875Z,1.35
2023-08-02T19:19:32.699Z,2.75
2023-08-02T19:22:03.663Z,2.80
2023-08-02T19:24:34.391Z,7.57
2023-08-02T19:27:03.549Z,2.17
2023-08-02T19:29:32.385Z,3.15
2023-08-02T19:32:01.695Z,4.30
2023-08-02T19:34:34.151Z,2.30
2023-08-02T19:37:05.305Z,4.80
2023-08-02T19:39:46.422Z,2.45
2023-08-02T19:42:15.991Z,2.78
2023-08-02T19:44:49.391Z,5.40
2023-08-02T19:47:18.111Z,7.22
2023-08-02T19:49:47.967Z,4.78
2023-08-02T19:52:18.037Z,4.45
2023-08-02T19:54:46.416Z,3.75
2023-08-02T19:57:15.896Z,4.15
2023-08-02T19:59:45.837Z,7.47
2023-08-02T20:02:24.186Z,5.93
2023-08-02T20:04:54.241Z,6.70
2023-08-02T20:07:23.299Z,5.68
2023-08-02T20:09:53.767Z,7.25
2023-08-02T20:12:23.100Z,5.68
2023-08-02T20:14:51.942Z,6.82
2023-08-02T20:17:20.369Z,6.80
2023-08-02T20:19:50.459Z,7.55
2023-08-02T20:22:20.555Z,4.25
2023-08-02T20:24:51.641Z,8.18
2023-08-02T20:27:20.399Z,6.40
2023-08-02T20:29:48.981Z,5.22
2023-08-02T20:32:19.715Z,7.72
2023-08-02T20:34:52.231Z,8.43
2023-08-02T20:37:22.119Z,8.98
2023-08-02T20:39:50.574Z,6.35
2023-08-02T20:42:19.704Z,6.40
2023-08-02T20:44:48.128Z,5.45
2023-08-02T20:47:19.145Z,4.97
2023-08-02T20:49:47.903Z,6.03
2023-08-02T20:52:17.431Z,5.88
2023-08-02T20:54:48.148Z,6.20
2023-08-02T20:57:17.118Z,5.90
2023-08-02T20:59:45.967Z,7.38
2023-08-02T21:02:20.835Z,7.43
2023-08-02T21:04:50.382Z,8.15
2023-08-02T21:07:18.661Z,6.45
2023-08-02T21:09:48.684Z,4.28
2023-08-02T21:12:17.189Z,7.10
2023-08-02T21:14:45.319Z,7.85
2023-08-02T21:17:19.694Z,4.82
2023-08-02T21:19:48.891Z,8.48
2023-08-02T21:22:17.198Z,10.00
2023-08-02T21:24:47.903Z,5.90
2023-08-02T21:27:16.193Z,6.18
2023-08-02T21:29:48.737Z,7.30
2023-08-02T21:32:21.203Z,6.13
2023-08-02T21:34:54.778Z,9.38
2023-08-02T21:37:23.207Z,6.78
2023-08-02T21:39:53.352Z,8.40
2023-08-02T21:42:25.093Z,6.28
2023-08-02T21:44:58.360Z,6.65
2023-08-02T21:47:27.030Z,6.25
2023-08-02T21:49:55.760Z,4.68
2023-08-02T21:52:26.290Z,7.00
2023-08-02T21:54:55.982Z,5.90
2023-08-02T21:57:24.800Z,6.75
2023-08-02T21:59:57.472Z,3.47
2023-08-02T22:02:26.751Z,13.38
2023-08-02T22:04:58.036Z,6.10
2023-08-02T22:07:28.522Z,10.63
2023-08-02T22:09:58.497Z,3.83
2023-08-02T22:12:27.289Z,5.10
2023-08-02T22:15:01.900Z,5.88
2023-08-02T22:17:30.403Z,3.22
2023-08-02T22:19:58.542Z,8.07
2023-08-02T22:22:27.028Z,13.00
2023-08-02T22:24:55.240Z,3.35
2023-08-02T22:27:26.025Z,5.50
2023-08-02T22:29:59.582Z,5.90
2023-08-02T22:32:28.823Z,4.53
2023-08-02T22:34:58.975Z,4.57
2023-08-02T22:37:27.619Z,6.32
2023-08-02T22:39:56.326Z,5.82
2023-08-02T22:42:26.720Z,6.50
2023-08-02T22:44:55.608Z,4.80
2023-08-02T22:47:23.787Z,5.22
2023-08-02T22:52:25.716Z,7.93
2023-08-02T22:54:54.600Z,8.73
2023-08-02T22:57:29.594Z,7.78
2023-08-02T22:59:59.192Z,6.97
2023-08-02T23:02:34.132Z,8.15
2023-08-02T23:05:05.779Z,3.97
2023-08-02T23:07:36.104Z,5.20
2023-08-02T23:10:13.765Z,5.63
2023-08-02T23:12:45.517Z,6.63
2023-08-02T23:15:17.800Z,5.15
2023-08-02T23:17:46.423Z,6.97
2023-08-02T23:20:36.548Z,6.93
2023-08-02T23:23:05.872Z,4.40
2023-08-02T23:25:34.101Z,9.40
2023-08-02T23:28:04.178Z,5.78
2023-08-02T23:30:34.448Z,13.38
2023-08-02T23:33:04.491Z,8.77
2023-08-02T23:35:32.743Z,5.82
2023-08-02T23:38:01.154Z,6.95
2023-08-02T23:40:29.322Z,5.90
2023-08-02T23:42:57.507Z,8.63
2023-08-02T23:45:28.490Z,6.43
2023-08-02T23:47:56.766Z,7.13
2023-08-02T23:50:25.252Z,4.15
2023-08-02T23:52:53.715Z,4.80
2023-08-02T23:55:21.870Z,7.07
2023-08-02T23:57:50.325Z,4.40
